Time;durP1;ratioP1;P1;durP2;ratioP2;P2;SDS_P1;SDS_P2;PMS_P1;PMS_P2;Temp;Humidity;BMP_temperature;BMP_pressure;BME280_temperature;BME280_humidity;BME280_pressure;Samples;Min_cycle;Max_cycle;Signal;HPM_P1;HPM_P2
2023/09/12 07:19:21;;;;;;;16.48;9.07;;;25.70;99.90;;;;;;2297374;23;20236;-71
2023/09/12 07:21:48;;;;;;;18.70;9.70;;;25.50;99.90;;;;;;4914415;29;20723;-71
2023/09/12 07:24:14;;;;;;;17.70;9.48;;;25.20;99.90;;;;;;4921493;29;20695;-70
2023/09/12 07:26:41;;;;;;;17.92;9.32;;;24.80;99.90;;;;;;4917557;29;20284;-70
2023/09/12 07:29:08;;;;;;;23.17;10.43;;;24.80;99.90;;;;;;4920678;29;20236;-70
2023/09/12 07:31:35;;;;;;;15.55;8.80;;;25.00;99.90;;;;;;4935705;29;20327;-70
2023/09/12 07:34:02;;;;;;;16.55;10.23;;;25.40;99.90;;;;;;4935675;29;20248;-70
2023/09/12 07:36:30;;;;;;;20.48;10.40;;;25.80;99.90;;;;;;4935833;29;20233;-70
2023/09/12 07:38:57;;;;;;;16.73;9.23;;;26.60;99.90;;;;;;4936063;29;20295;-70
2023/09/12 07:41:24;;;;;;;16.50;8.68;;;27.30;99.90;;;;;;4935956;29;20299;-70
2023/09/12 07:43:51;;;;;;;15.55;7.68;;;28.00;99.90;;;;;;4935633;29;20672;-72
2023/09/12 07:46:18;;;;;;;15.73;8.60;;;28.80;99.90;;;;;;4935860;29;20240;-71
2023/09/12 07:48:44;;;;;;;17.50;8.63;;;29.40;99.90;;;;;;4935929;29;20303;-72
2023/09/12 07:51:17;;;;;;;13.85;7.13;;;29.70;99.90;;;;;;4935704;29;20668;-71
2023/09/12 07:53:45;;;;;;;15.20;7.97;;;29.50;99.90;;;;;;4935554;29;20212;-70
2023/09/12 07:56:12;;;;;;;20.02;8.75;;;28.90;99.90;;;;;;4935580;29;20320;-72
2023/09/12 07:58:39;;;;;;;18.00;8.52;;;28.40;99.90;;;;;;4935578;29;20291;-71
2023/09/12 08:01:07;;;;;;;17.73;8.65;;;27.70;99.90;;;;;;4936035;29;20291;-70
2023/09/12 08:03:35;;;;;;;17.10;8.75;;;27.10;99.90;;;;;;4935543;29;20236;-71
2023/09/12 08:06:01;;;;;;;16.05;7.82;;;27.10;99.90;;;;;;4935502;29;20232;-71
2023/09/12 08:08:30;;;;;;;16.58;9.18;;;26.90;99.90;;;;;;4935406;29;20208;-70
2023/09/12 08:10:58;;;;;;;15.88;8.55;;;26.70;99.90;;;;;;4935461;29;20347;-71
2023/09/12 08:13:27;;;;;;;16.80;8.93;;;26.70;99.90;;;;;;4935582;29;20660;-70
2023/09/12 08:15:54;;;;;;;16.90;8.40;;;26.80;99.90;;;;;;4935417;29;20295;-71
2023/09/12 08:18:21;;;;;;;16.80;8.73;;;27.00;99.90;;;;;;4935585;29;20244;-71
2023/09/12 08:20:48;;;;;;;15.43;8.43;;;27.70;99.90;;;;;;4935298;29;20307;-70
2023/09/12 08:23:15;;;;;;;15.82;8.15;;;27.90;99.90;;;;;;4935415;29;20747;-72
2023/09/12 08:25:41;;;;;;;18.63;9.13;;;28.40;99.90;;;;;;4935605;29;20658;-70
2023/09/12 08:28:10;;;;;;;13.15;7.63;;;28.60;99.90;;;;;;4935385;29;20753;-71
2023/09/12 08:30:36;;;;;;;14.45;7.18;;;28.50;99.90;;;;;;4935342;29;20324;-71
2023/09/12 08:33:05;;;;;;;15.57;7.65;;;28.30;99.90;;;;;;4935412;29;20288;-70
2023/09/12 08:35:32;;;;;;;12.65;7.32;;;27.80;99.90;;;;;;4935213;29;20212;-71
2023/09/12 08:37:58;;;;;;;14.25;6.78;;;27.60;99.90;;;;;;4935264;29;20264;-70
2023/09/12 08:40:25;;;;;;;13.88;7.07;;;27.80;99.90;;;;;;4934883;29;20259;-70
2023/09/12 08:42:53;;;;;;;12.23;6.15;;;28.00;99.90;;;;;;4935152;29;20768;-71
2023/09/12 08:45:21;;;;;;;11.32;6.55;;;28.20;99.90;;;;;;4935318;29;20244;-70
2023/09/12 08:47:52;;;;;;;12.23;7.00;;;28.20;99.90;;;;;;4935429;29;20265;-70
2023/09/12 08:50:20;;;;;;;10.10;5.80;;;28.20;99.90;;;;;;4935233;29;20236;-70
2023/09/12 08:52:48;;;;;;;13.48;6.63;;;28.10;99.90;;;;;;4935194;29;20211;-71
2023/09/12 08:55:15;;;;;;;7.47;3.95;;;28.20;99.90;;;;;;4936355;29;20205;-71
2023/09/12 08:57:43;;;;;;;8.10;4.82;;;28.60;99.90;;;;;;4938537;29;20267;-72
2023/09/12 09:00:13;;;;;;;8.55;4.97;;;28.80;99.90;;;;;;4938809;29;20296;-71
2023/09/12 09:02:42;;;;;;;9.20;4.82;;;29.30;99.90;;;;;;4938671;29;20211;-71
2023/09/12 09:05:10;;;;;;;10.80;5.25;;;29.60;99.90;;;;;;4938618;29;20362;-71
2023/09/12 09:07:38;;;;;;;10.45;5.05;;;29.70;99.90;;;;;;4938298;29;20237;-72
2023/09/12 09:10:07;;;;;;;8.98;4.80;;;29.70;99.90;;;;;;4938479;29;20205;-70
2023/09/12 09:12:35;;;;;;;8.65;3.88;;;29.70;99.90;;;;;;4938512;29;20236;-71
2023/09/12 09:15:24;;;;;;;8.95;4.35;;;29.50;99.90;;;;;;4938421;29;20299;-72
2023/09/12 09:17:53;;;;;;;5.95;3.40;;;29.50;99.90;;;;;;4938413;29;20329;-71
2023/09/12 09:20:24;;;;;;;6.80;3.50;;;29.10;99.90;;;;;;4938154;29;20311;-71
2023/09/12 09:22:59;;;;;;;6.80;3.15;;;28.80;99.90;;;;;;4938790;29;20219;-70
2023/09/12 09:25:26;;;;;;;5.47;3.10;;;28.80;99.90;;;;;;4938386;29;20235;-71
2023/09/12 09:27:53;;;;;;;4.78;2.90;;;28.40;99.90;;;;;;4937797;29;20312;-71
2023/09/12 09:30:39;;;;;;;4.28;2.60;;;28.40;99.90;;;;;;4937889;29;20633;-71
2023/09/12 09:33:08;;;;;;;5.90;3.00;;;28.20;99.90;;;;;;4938054;29;20762;-71
2023/09/12 09:35:35;;;;;;;4.82;2.65;;;28.00;99.90;;;;;;4937982;29;20248;-70
2023/09/12 09:38:03;;;;;;;3.83;2.70;;;27.90;99.90;;;;;;4937813;29;20229;-71
2023/09/12 09:40:30;;;;;;;5.03;3.30;;;27.70;99.90;;;;;;4930052;29;20299;-70
2023/09/12 09:43:00;;;;;;;5.00;2.92;;;27.80;99.90;;;;;;4937556;29;20638;-70
2023/09/12 09:45:27;;;;;;;5.55;3.05;;;27.80;99.90;;;;;;4937716;29;20680;-70
2023/09/12 09:47:58;;;;;;;6.05;3.10;;;27.90;99.90;;;;;;4937763;29;20272;-71
2023/09/12 09:50:27;;;;;;;7.22;2.97;;;27.80;99.90;;;;;;4937143;29;20739;-70
2023/09/12 09:52:56;;;;;;;4.63;2.92;;;27.80;99.90;;;;;;4937772;29;20216;-70
2023/09/12 09:55:23;;;;;;;6.25;2.72;;;27.60;99.90;;;;;;4937934;29;20267;-70
2023/09/12 09:57:52;;;;;;;5.35;3.10;;;27.50;99.90;;;;;;4937779;29;20229;-70
2023/09/12 10:00:20;;;;;;;5.93;2.67;;;27.50;99.90;;;;;;4938002;29;20295;-70
2023/09/12 10:02:49;;;;;;;6.45;2.40;;;27.50;99.90;;;;;;4937622;29;20304;-70
2023/09/12 10:05:17;;;;;;;5.90;3.40;;;27.80;99.90;;;;;;4937523;29;20643;-70
2023/09/12 10:07:49;;;;;;;5.72;2.60;;;27.90;99.90;;;;;;4937452;29;20579;-70
2023/09/12 10:10:17;;;;;;;3.30;2.50;;;28.00;99.90;;;;;;4937479;29;20656;-70
2023/09/12 10:12:50;;;;;;;6.03;2.95;;;28.20;99.90;;;;;;4937564;29;20287;-70
2023/09/12 10:15:20;;;;;;;4.57;2.88;;;28.10;99.90;;;;;;4937388;29;20205;-70
2023/09/12 10:17:51;;;;;;;3.83;2.58;;;28.00;99.90;;;;;;4937307;29;20276;-71
2023/09/12 10:20:22;;;;;;;5.90;2.72;;;28.00;99.90;;;;;;4930562;29;20354;-70
2023/09/12 10:23:00;;;;;;;7.30;2.88;;;28.10;99.90;;;;;;4917698;29;20206;-70
2023/09/12 10:25:29;;;;;;;5.63;2.72;;;28.10;99.90;;;;;;4915489;29;20229;-70
2023/09/12 10:27:56;;;;;;;4.65;3.25;;;28.20;99.90;;;;;;4917395;29;20261;-70
2023/09/12 10:30:24;;;;;;;3.97;3.28;;;28.30;99.90;;;;;;4914592;29;20202;-70
2023/09/12 10:32:52;;;;;;;4.93;2.83;;;28.10;99.90;;;;;;4917125;29;20272;-70
2023/09/12 10:35:19;;;;;;;4.18;3.13;;;28.10;99.90;;;;;;4917922;29;20312;-70
2023/09/12 10:37:49;;;;;;;3.85;2.50;;;28.30;99.90;;;;;;4917824;29;20738;-70
2023/09/12 10:40:18;;;;;;;5.57;2.75;;;28.40;99.90;;;;;;4917116;29;20233;-70
2023/09/12 10:42:46;;;;;;;5.20;2.88;;;28.40;99.90;;;;;;4917732;29;20278;-70
2023/09/12 10:45:13;;;;;;;4.53;2.50;;;28.20;99.90;;;;;;4917653;29;20621;-70
2023/09/12 10:47:40;;;;;;;6.68;2.67;;;28.10;99.90;;;;;;4917192;29;20312;-70
2023/09/12 10:50:09;;;;;;;6.72;2.85;;;27.90;99.90;;;;;;4917881;29;20300;-70
2023/09/12 10:52:39;;;;;;;4.45;2.70;;;28.00;99.90;;;;;;4917140;29;20240;-70
2023/09/12 10:55:07;;;;;;;6.07;3.50;;;28.30;99.90;;;;;;4917576;29;20224;-70
2023/09/12 10:57:35;;;;;;;6.93;3.10;;;28.40;99.90;;;;;;4917345;29;20261;-70
2023/09/12 11:00:12;;;;;;;4.15;2.70;;;28.10;99.90;;;;;;4917173;29;20245;-70
2023/09/12 11:02:40;;;;;;;5.10;2.95;;;27.80;99.90;;;;;;4917456;29;20213;-70
2023/09/12 11:05:28;;;;;;;5.20;3.13;;;27.80;99.90;;;;;;4917505;29;20710;-70
2023/09/12 11:07:58;;;;;;;5.35;2.83;;;27.80;99.90;;;;;;4917114;29;20236;-70
2023/09/12 11:10:26;;;;;;;5.78;2.90;;;27.80;99.90;;;;;;4916602;29;20560;-70
2023/09/12 11:12:56;;;;;;;5.97;3.20;;;27.80;99.90;;;;;;4917519;29;20327;-70
2023/09/12 11:15:25;;;;;;;4.25;3.03;;;27.70;99.90;;;;;;4917111;29;20691;-70
2023/09/12 11:18:03;;;;;;;4.28;2.50;;;27.80;99.90;;;;;;4916852;29;20321;-70
2023/09/12 11:20:52;;;;;;;6.35;3.03;;;27.90;99.90;;;;;;4916424;29;20224;-70
2023/09/12 11:23:20;;;;;;;6.95;4.68;;;28.00;99.90;;;;;;4914542;29;20293;-70
2023/09/12 11:25:47;;;;;;;6.35;3.83;;;28.30;99.90;;;;;;4916617;29;20613;-70
2023/09/12 11:28:15;;;;;;;5.97;3.38;;;28.30;99.90;;;;;;4917080;29;20656;-70
2023/09/12 11:30:58;;;;;;;5.55;3.15;;;28.10;99.90;;;;;;4916812;29;20635;-69
2023/09/12 11:33:26;;;;;;;5.95;3.42;;;28.10;99.90;;;;;;4917440;29;20212;-69
2023/09/12 11:35:54;;;;;;;4.50;3.30;;;28.10;99.90;;;;;;4917068;29;20218;-70
2023/09/12 11:38:29;;;;;;;5.20;3.67;;;28.20;99.90;;;;;;4916811;29;20217;-69
2023/09/12 11:40:56;;;;;;;6.25;3.30;;;28.20;99.90;;;;;;4916690;29;20209;-69
2023/09/12 11:43:26;;;;;;;11.15;3.78;;;28.30;99.90;;;;;;4916892;29;20755;-69
2023/09/12 11:45:54;;;;;;;5.72;3.65;;;28.30;99.90;;;;;;4916689;29;20244;-69
2023/09/12 11:48:21;;;;;;;6.22;3.50;;;28.00;99.90;;;;;;4916912;29;20293;-70
2023/09/12 11:50:53;;;;;;;4.57;3.20;;;28.10;99.90;;;;;;4916886;29;20249;-69
2023/09/12 11:53:25;;;;;;;6.78;3.63;;;27.90;99.90;;;;;;4916738;29;20328;-69
2023/09/12 11:55:54;;;;;;;5.05;3.20;;;27.80;99.90;;;;;;4916755;29;20206;-69
2023/09/12 11:58:22;;;;;;;5.35;3.08;;;27.80;99.90;;;;;;4916760;29;20304;-69
2023/09/12 12:00:51;;;;;;;6.18;3.20;;;28.20;99.90;;;;;;4916449;29;20296;-69
2023/09/12 12:03:20;;;;;;;5.72;3.03;;;28.50;99.90;;;;;;4915847;29;20296;-69
2023/09/12 12:05:47;;;;;;;5.53;2.90;;;28.70;99.90;;;;;;4915852;29;20227;-69
2023/09/12 12:08:15;;;;;;;6.20;2.90;;;28.50;99.90;;;;;;4916029;29;20300;-69
2023/09/12 12:10:42;;;;;;;3.60;2.78;;;28.60;99.90;;;;;;4915707;29;20740;-69
2023/09/12 12:13:12;;;;;;;4.10;2.53;;;28.50;99.90;;;;;;4916527;29;20323;-69
2023/09/12 12:15:39;;;;;;;2.80;2.50;;;28.40;99.90;;;;;;4916609;29;20248;-69
2023/09/12 12:18:07;;;;;;;6.88;2.50;;;28.50;99.90;;;;;;4916588;29;20247;-69
2023/09/12 12:20:34;;;;;;;8.60;2.83;;;28.50;99.90;;;;;;4916322;29;20260;-69
2023/09/12 12:23:01;;;;;;;6.25;3.22;;;28.50;99.90;;;;;;4916374;29;20661;-69
2023/09/12 12:25:33;;;;;;;4.30;3.10;;;28.50;99.90;;;;;;4916377;29;20241;-69
2023/09/12 12:28:00;;;;;;;3.15;2.47;;;28.50;99.90;;;;;;4916478;29;20226;-69
2023/09/12 12:30:27;;;;;;;3.17;2.28;;;28.50;99.90;;;;;;4918240;29;20636;-69
2023/09/12 12:32:54;;;;;;;3.95;2.58;;;28.80;99.90;;;;;;4920250;29;20276;-69
2023/09/12 12:35:24;;;;;;;4.22;2.80;;;28.70;99.90;;;;;;4919952;29;20248;-69
2023/09/12 12:37:55;;;;;;;3.80;2.70;;;28.80;99.90;;;;;;4920111;29;20317;-69
2023/09/12 12:40:22;;;;;;;4.03;2.50;;;28.60;99.90;;;;;;4920047;29;20665;-69
2023/09/12 12:42:49;;;;;;;3.58;2.60;;;28.70;99.90;;;;;;4920076;29;20210;-69
2023/09/12 12:45:17;;;;;;;2.83;2.30;;;28.80;99.90;;;;;;4920010;29;20248;-69
2023/09/12 12:47:45;;;;;;;3.83;2.28;;;28.60;99.90;;;;;;4920058;29;20265;-70
2023/09/12 12:50:13;;;;;;;3.40;2.10;;;28.50;99.90;;;;;;4920122;29;20209;-69
2023/09/12 12:52:42;;;;;;;3.80;2.25;;;28.50;99.90;;;;;;4919911;29;20320;-69
2023/09/12 12:55:11;;;;;;;3.85;2.70;;;28.40;99.90;;;;;;4919991;29;20735;-70
2023/09/12 12:57:39;;;;;;;4.30;2.83;;;28.30;99.90;;;;;;4920138;29;20276;-69
2023/09/12 13:00:10;;;;;;;5.13;2.88;;;28.20;99.90;;;;;;4919710;29;20244;-69
2023/09/12 13:02:37;;;;;;;4.32;2.60;;;28.10;99.90;;;;;;4919229;29;20217;-69
2023/09/12 13:05:07;;;;;;;4.78;2.50;;;28.10;99.90;;;;;;4919473;29;20236;-69
2023/09/12 13:07:35;;;;;;;6.85;2.80;;;28.00;99.90;;;;;;4919854;29;20234;-69
2023/09/12 13:10:04;;;;;;;3.67;2.92;;;28.00;99.90;;;;;;4919741;29;20241;-69
2023/09/12 13:12:31;;;;;;;6.30;3.28;;;28.00;99.90;;;;;;4919543;29;20292;-69
2023/09/12 13:14:58;;;;;;;5.18;3.22;;;27.90;99.90;;;;;;4919398;29;20205;-69
2023/09/12 13:17:25;;;;;;;4.10;2.75;;;27.90;99.90;;;;;;4919576;29;20260;-69
2023/09/12 13:19:52;;;;;;;6.75;2.72;;;27.90;99.90;;;;;;4920076;29;20248;-70
2023/09/12 13:22:19;;;;;;;5.05;2.83;;;27.70;99.90;;;;;;4919193;29;20249;-69
2023/09/12 13:24:46;;;;;;;5.43;2.72;;;27.60;99.90;;;;;;4919206;29;20517;-69
2023/09/12 13:27:14;;;;;;;7.50;2.65;;;27.60;99.90;;;;;;4919044;29;20316;-69
2023/09/12 13:29:41;;;;;;;7.10;3.30;;;27.50;99.90;;;;;;4919080;29;20274;-69
2023/09/12 13:32:10;;;;;;;4.35;2.85;;;27.40;99.90;;;;;;4916984;29;20807;-69
2023/09/12 13:34:36;;;;;;;5.25;3.15;;;27.20;99.90;;;;;;4921357;29;20212;-68
2023/09/12 13:37:04;;;;;;;4.03;2.67;;;27.10;99.90;;;;;;4918831;29;20265;-68
2023/09/12 13:39:30;;;;;;;4.97;2.88;;;26.90;99.90;;;;;;4929799;29;20241;-68
2023/09/12 13:41:59;;;;;;;5.07;2.80;;;26.80;99.90;;;;;;4937009;29;20270;-68
2023/09/12 13:44:28;;;;;;;4.90;2.78;;;26.90;99.90;;;;;;4918857;29;20277;-68
2023/09/12 13:46:54;;;;;;;6.03;2.55;;;26.90;99.90;;;;;;4918714;29;20266;-68
2023/09/12 13:49:21;;;;;;;5.45;2.75;;;26.80;99.90;;;;;;4918789;29;20711;-68
2023/09/12 13:51:48;;;;;;;6.22;2.60;;;26.70;99.90;;;;;;4930511;29;20240;-67
2023/09/12 13:54:15;;;;;;;3.83;2.53;;;26.80;99.90;;;;;;4919315;29;20300;-69
2023/09/12 13:56:42;;;;;;;4.00;2.75;;;26.80;99.90;;;;;;4918483;29;20312;-68
2023/09/12 13:59:09;;;;;;;4.28;2.85;;;26.70;99.90;;;;;;4918587;29;20617;-68
2023/09/12 14:01:37;;;;;;;4.57;3.05;;;26.70;99.90;;;;;;4918727;29;20668;-69
2023/09/12 14:04:04;;;;;;;8.23;3.15;;;26.80;99.90;;;;;;4918246;29;20218;-69
2023/09/12 14:06:33;;;;;;;5.05;2.53;;;26.70;99.90;;;;;;4918071;29;20633;-69
2023/09/12 14:09:00;;;;;;;6.35;3.13;;;26.80;99.90;;;;;;4917890;29;20245;-69
2023/09/12 14:11:27;;;;;;;4.72;2.80;;;26.80;99.90;;;;;;4918262;29;20300;-70
2023/09/12 14:13:54;;;;;;;3.47;2.50;;;26.80;99.90;;;;;;4918542;29;20650;-69
2023/09/12 14:16:21;;;;;;;4.50;3.10;;;26.90;99.90;;;;;;4918185;29;20630;-70
2023/09/12 14:18:49;;;;;;;4.10;2.72;;;26.80;99.90;;;;;;4918097;29;20201;-70
2023/09/12 14:21:16;;;;;;;7.10;3.22;;;26.80;99.90;;;;;;4917907;29;20249;-70
2023/09/12 14:23:43;;;;;;;8.07;3.45;;;26.90;99.90;;;;;;4918124;29;20304;-70
2023/09/12 14:26:10;;;;;;;7.50;3.25;;;26.90;99.90;;;;;;4917924;29;20316;-70
2023/09/12 14:28:36;;;;;;;5.50;3.10;;;26.70;99.90;;;;;;4918225;29;20305;-69
2023/09/12 14:31:06;;;;;;;7.55;3.53;;;26.60;99.90;;;;;;4918084;29;20244;-70
2023/09/12 14:33:33;;;;;;;6.93;4.13;;;26.50;99.90;;;;;;4917921;29;20241;-69
2023/09/12 14:36:04;;;;;;;5.45;3.70;;;26.50;99.90;;;;;;4917830;29;20248;-69
2023/09/12 14:38:31;;;;;;;5.82;3.42;;;26.40;99.90;;;;;;4918112;29;20297;-69
2023/09/12 14:40:57;;;;;;;5.43;3.67;;;26.30;99.90;;;;;;4918311;29;20256;-70
2023/09/12 14:43:25;;;;;;;6.72;4.20;;;26.20;99.90;;;;;;4918022;29;20244;-69
2023/09/12 14:45:52;;;;;;;7.03;4.18;;;26.20;99.90;;;;;;4917480;29;20573;-70
2023/09/12 14:48:18;;;;;;;7.38;4.07;;;26.20;99.90;;;;;;4917707;29;20694;-69
2023/09/12 14:50:48;;;;;;;6.63;4.20;;;26.10;99.90;;;;;;4917519;29;20639;-69
2023/09/12 14:53:17;;;;;;;8.43;4.47;;;26.10;99.90;;;;;;4916787;29;20289;-69
2023/09/12 14:55:44;;;;;;;5.38;3.60;;;26.00;99.90;;;;;;4917887;29;20237;-69
2023/09/12 14:58:11;;;;;;;7.72;4.35;;;25.90;99.90;;;;;;4917579;29;20237;-69
2023/09/12 15:00:38;;;;;;;5.90;3.83;;;26.00;99.90;;;;;;4916145;29;20288;-69
2023/09/12 15:03:05;;;;;;;5.53;3.97;;;25.90;99.90;;;;;;4919330;29;20661;-69
2023/09/12 15:05:32;;;;;;;7.00;3.72;;;25.90;99.90;;;;;;4917303;29;20248;-68
2023/09/12 15:07:59;;;;;;;6.95;3.85;;;25.80;99.90;;;;;;4927358;29;20225;-69
2023/09/12 15:10:28;;;;;;;5.80;3.50;;;25.80;99.90;;;;;;4936112;29;20244;-69
2023/09/12 15:12:55;;;;;;;5.50;3.03;;;25.80;99.90;;;;;;4917705;29;20268;-68
2023/09/12 15:15:22;;;;;;;4.90;3.55;;;25.80;99.90;;;;;;4917407;29;20216;-69
2023/09/12 15:17:49;;;;;;;7.63;3.80;;;25.70;99.90;;;;;;4917014;29;20264;-69
2023/09/12 15:20:15;;;;;;;5.53;3.78;;;25.60;99.90;;;;;;4927647;29;20244;-69
2023/09/12 15:22:43;;;;;;;5.30;3.40;;;25.60;99.90;;;;;;4918850;29;20300;-69
2023/09/12 15:25:10;;;;;;;5.32;2.78;;;25.50;99.90;;;;;;4917308;29;20237;-69
2023/09/12 15:27:38;;;;;;;4.25;3.25;;;25.60;99.90;;;;;;4916527;29;20280;-69
2023/09/12 15:30:07;;;;;;;6.05;3.03;;;25.60;99.90;;;;;;4916947;29;20303;-69
2023/09/12 15:32:34;;;;;;;5.07;3.05;;;25.50;99.90;;;;;;4917107;29;20316;-69
2023/09/12 15:35:00;;;;;;;7.15;3.10;;;25.50;99.90;;;;;;4916844;29;20264;-69
2023/09/12 15:37:27;;;;;;;6.45;3.20;;;25.30;99.90;;;;;;4917007;29;20272;-69
2023/09/12 15:39:54;;;;;;;5.25;2.63;;;25.30;99.90;;;;;;4917089;29;20300;-69
2023/09/12 15:42:21;;;;;;;4.45;2.92;;;25.20;99.90;;;;;;4916961;29;20245;-69
2023/09/12 15:44:50;;;;;;;3.63;2.60;;;25.10;99.90;;;;;;4916749;29;20903;-69
2023/09/12 15:47:16;;;;;;;4.57;2.72;;;25.20;99.90;;;;;;4916597;29;20317;-70
2023/09/12 15:49:43;;;;;;;4.10;2.80;;;25.10;99.90;;;;;;4916766;29;20296;-70
2023/09/12 15:52:10;;;;;;;5.93;3.17;;;25.00;99.90;;;;;;4926722;29;20240;-70
2023/09/12 15:54:37;;;;;;;6.15;3.00;;;25.10;99.90;;;;;;4935342;29;20323;-70
2023/09/12 15:57:05;;;;;;;5.10;3.03;;;25.00;99.90;;;;;;4931013;29;20308;-70
2023/09/12 15:59:32;;;;;;;5.05;3.33;;;25.00;99.90;;;;;;4915936;29;20285;-70
2023/09/12 16:02:00;;;;;;;6.43;3.78;;;24.80;99.90;;;;;;4913175;29;20244;-70
2023/09/12 16:04:27;;;;;;;7.53;3.22;;;24.60;99.90;;;;;;4917059;29;20236;-70
2023/09/12 16:06:54;;;;;;;6.72;3.58;;;24.60;99.90;;;;;;4919622;29;20271;-70
2023/09/12 16:09:21;;;;;;;5.45;3.40;;;24.60;99.90;;;;;;4919669;29;20209;-70
2023/09/12 16:11:48;;;;;;;5.22;3.55;;;24.50;99.90;;;;;;4919602;29;20237;-70
2023/09/12 16:14:16;;;;;;;6.05;2.97;;;24.60;99.90;;;;;;4918968;29;20720;-70
2023/09/12 16:16:43;;;;;;;7.10;4.10;;;24.60;99.90;;;;;;4919322;29;20249;-70
2023/09/12 16:19:11;;;;;;;6.82;3.78;;;24.50;99.90;;;;;;4919525;29;20245;-70
2023/09/12 16:21:38;;;;;;;6.07;3.45;;;24.40;99.90;;;;;;4919286;29;20244;-70
2023/09/12 16:24:10;;;;;;;5.22;3.38;;;24.40;99.90;;;;;;4919283;29;20669;-70
2023/09/12 16:26:37;;;;;;;5.43;3.38;;;24.40;99.90;;;;;;4917150;29;20252;-70
2023/09/12 16:29:03;;;;;;;5.22;3.85;;;24.50;99.90;;;;;;4919202;29;20422;-69
2023/09/12 16:31:30;;;;;;;8.35;3.90;;;24.50;99.90;;;;;;4919377;29;20244;-70
2023/09/12 16:33:57;;;;;;;5.97;3.58;;;24.40;99.90;;;;;;4919013;29;20333;-70
2023/09/12 16:36:25;;;;;;;5.68;3.65;;;24.40;99.90;;;;;;4919369;29;20312;-70
2023/09/12 16:38:53;;;;;;;6.18;4.18;;;24.40;99.90;;;;;;4919161;29;20296;-71
2023/09/12 16:41:20;;;;;;;6.68;4.25;;;24.40;99.90;;;;;;4933664;29;20503;-71
2023/09/12 16:43:47;;;;;;;4.57;3.38;;;24.20;99.90;;;;;;4915994;29;20213;-70
2023/09/12 16:46:13;;;;;;;7.03;3.42;;;24.20;99.90;;;;;;4917694;29;20320;-71
2023/09/12 16:48:42;;;;;;;7.40;3.35;;;24.20;99.90;;;;;;4926008;29;20564;-70
2023/09/12 16:51:09;;;;;;;6.97;3.92;;;24.20;99.90;;;;;;4919058;29;20605;-70
2023/09/12 16:53:37;;;;;;;5.60;3.80;;;24.10;99.90;;;;;;4917831;29;20273;-71
2023/09/12 16:56:04;;;;;;;7.15;4.30;;;24.00;99.90;;;;;;4916958;29;20319;-69
2023/09/12 16:58:32;;;;;;;7.60;3.70;;;24.00;99.90;;;;;;4917214;29;20248;-72
2023/09/12 17:00:59;;;;;;;11.10;4.78;;;24.00;99.90;;;;;;4916667;29;20254;-73
2023/09/12 17:03:26;;;;;;;6.78;4.03;;;24.00;99.90;;;;;;4914155;29;20304;-71
2023/09/12 17:05:53;;;;;;;8.52;4.63;;;24.00;99.90;;;;;;4917366;29;20336;-71
2023/09/12 17:08:20;;;;;;;8.63;4.47;;;24.00;99.90;;;;;;4912376;29;20245;-72
2023/09/12 17:10:48;;;;;;;6.68;4.40;;;24.00;99.90;;;;;;4916020;29;20643;-70
2023/09/12 17:13:15;;;;;;;8.65;4.93;;;24.10;99.90;;;;;;4917442;29;20230;-70
2023/09/12 17:15:42;;;;;;;7.18;4.78;;;24.10;99.90;;;;;;4916964;29;20670;-71
2023/09/12 17:18:09;;;;;;;10.10;5.10;;;24.00;99.90;;;;;;4917303;29;20756;-69
2023/09/12 17:20:36;;;;;;;8.10;5.13;;;24.00;99.90;;;;;;4917686;29;20257;-69
2023/09/12 17:23:03;;;;;;;8.77;5.55;;;23.80;99.90;;;;;;4916920;29;20293;-71
2023/09/12 17:25:30;;;;;;;10.85;5.55;;;23.80;99.90;;;;;;4916906;29;20252;-72
2023/09/12 17:27:58;;;;;;;8.55;5.68;;;23.70;99.90;;;;;;4917284;29;20276;-71
2023/09/12 17:30:25;;;;;;;12.18;6.85;;;23.60;99.90;;;;;;4917759;29;20244;-73
2023/09/12 17:32:52;;;;;;;13.10;6.57;;;23.50;99.90;;;;;;4918072;29;20305;-70
2023/09/12 17:35:20;;;;;;;9.73;6.35;;;23.40;99.90;;;;;;4918397;29;20256;-69
2023/09/12 17:37:47;;;;;;;11.20;6.57;;;23.40;99.90;;;;;;4929282;29;20224;-70
2023/09/12 17:40:14;;;;;;;9.98;7.30;;;23.30;99.90;;;;;;4918439;29;20241;-71
2023/09/12 17:42:41;;;;;;;12.57;7.13;;;23.10;99.90;;;;;;4918224;29;20241;-70
2023/09/12 17:45:11;;;;;;;13.57;7.03;;;23.10;99.90;;;;;;4919118;29;20217;-70
2023/09/12 17:47:37;;;;;;;12.65;6.97;;;22.90;99.90;;;;;;4918261;29;20312;-70
2023/09/12 17:50:05;;;;;;;12.65;7.15;;;22.70;99.90;;;;;;4918651;29;20263;-70
2023/09/12 17:52:32;;;;;;;13.82;7.43;;;22.60;99.90;;;;;;4918116;29;20644;-70
2023/09/12 17:54:59;;;;;;;12.88;7.28;;;22.50;99.90;;;;;;4918587;29;20269;-71
2023/09/12 17:57:26;;;;;;;14.43;7.63;;;22.50;99.90;;;;;;4918715;29;20265;-71
2023/09/12 17:59:55;;;;;;;12.40;7.40;;;22.40;99.90;;;;;;4918575;29;20254;-70
2023/09/12 18:02:23;;;;;;;13.48;7.55;;;22.40;99.90;;;;;;4916417;29;20305;-70
2023/09/12 18:04:50;;;;;;;12.00;7.47;;;22.30;99.90;;;;;;4915265;29;20241;-71
2023/09/12 18:07:17;;;;;;;13.10;7.07;;;22.30;99.90;;;;;;4917399;29;20228;-70
2023/09/12 18:09:45;;;;;;;10.73;6.90;;;22.00;99.90;;;;;;4918059;29;20202;-70
2023/09/12 18:12:12;;;;;;;13.05;6.95;;;21.90;99.90;;;;;;4917505;29;20573;-70
2023/09/12 18:14:39;;;;;;;11.63;7.15;;;21.90;99.90;;;;;;4917537;29;20233;-71
2023/09/12 18:17:06;;;;;;;13.35;7.97;;;22.00;99.90;;;;;;4909218;29;20409;-70
2023/09/12 18:19:35;;;;;;;11.88;6.90;;;22.00;99.90;;;;;;4915230;29;20213;-71
2023/09/12 18:22:03;;;;;;;11.45;6.70;;;22.00;99.90;;;;;;4915139;29;20626;-70
2023/09/12 18:24:30;;;;;;;9.27;6.25;;;21.90;99.90;;;;;;4914652;29;20205;-70
2023/09/12 18:26:57;;;;;;;10.07;6.57;;;21.80;99.90;;;;;;4916851;29;20625;-72
2023/09/12 18:29:24;;;;;;;12.40;7.07;;;21.80;99.90;;;;;;4917286;29;20241;-72
2023/09/12 18:31:51;;;;;;;9.38;6.07;;;21.80;99.90;;;;;;4916597;29;20250;-71
2023/09/12 18:34:17;;;;;;;10.23;6.13;;;21.90;99.90;;;;;;4917021;29;20320;-71
2023/09/12 18:36:46;;;;;;;9.80;6.00;;;21.80;99.90;;;;;;4917093;29;20312;-71
2023/09/12 18:39:13;;;;;;;10.82;5.93;;;21.70;99.90;;;;;;4917750;29;20214;-71
2023/09/12 18:41:40;;;;;;;9.95;5.90;;;21.70;99.90;;;;;;4917331;29;20248;-71
2023/09/12 18:44:07;;;;;;;9.30;5.97;;;21.60;99.90;;;;;;4917015;29;20289;-72
2023/09/12 18:46:34;;;;;;;10.20;6.10;;;21.50;99.90;;;;;;4916976;29;20249;-71
2023/09/12 18:49:00;;;;;;;10.63;5.78;;;21.40;99.90;;;;;;4917018;29;20292;-70
2023/09/12 18:51:28;;;;;;;10.35;6.03;;;21.30;99.90;;;;;;4917203;29;20229;-71
2023/09/12 18:53:56;;;;;;;9.88;5.90;;;21.30;99.90;;;;;;4917133;29;20229;-71
2023/09/12 18:56:23;;;;;;;8.60;5.63;;;21.40;99.90;;;;;;4917058;29;20259;-71
2023/09/12 18:58:50;;;;;;;10.50;5.20;;;21.40;99.90;;;;;;4916922;29;20202;-71
2023/09/12 19:01:16;;;;;;;9.18;5.97;;;21.50;99.90;;;;;;4914551;29;20301;-70
2023/09/12 19:03:43;;;;;;;8.82;5.57;;;21.50;99.90;;;;;;4917570;29;20297;-71
2023/09/12 19:06:10;;;;;;;8.85;5.70;;;21.50;99.90;;;;;;4917192;29;20240;-71
2023/09/12 19:08:40;;;;;;;9.55;6.28;;;21.50;99.90;;;;;;4917874;29;20277;-71
2023/09/12 19:11:08;;;;;;;9.05;5.45;;;21.60;99.90;;;;;;4917591;29;20210;-71
2023/09/12 19:13:35;;;;;;;10.68;5.85;;;21.60;99.90;;;;;;4917140;29;20221;-71
2023/09/12 19:16:02;;;;;;;9.38;5.95;;;21.60;99.90;;;;;;4917011;29;20708;-71
2023/09/12 19:18:30;;;;;;;10.73;5.90;;;21.60;99.90;;;;;;4917155;29;20209;-71
2023/09/12 19:20:57;;;;;;;8.48;5.72;;;21.50;99.90;;;;;;4917480;29;20304;-72
2023/09/12 19:23:24;;;;;;;9.88;5.60;;;21.50;99.90;;;;;;4917311;29;20624;-71
2023/09/12 19:25:51;;;;;;;7.47;4.90;;;21.50;99.90;;;;;;4917231;29;20308;-72
2023/09/12 19:28:19;;;;;;;9.13;5.80;;;21.40;99.90;;;;;;4917274;29;20301;-71
2023/09/12 19:30:46;;;;;;;10.48;6.13;;;21.40;99.90;;;;;;4916940;29;20213;-71
2023/09/12 19:33:13;;;;;;;9.48;5.63;;;21.30;99.90;;;;;;4917088;29;20245;-72
2023/09/12 19:35:40;;;;;;;6.00;4.15;;;21.30;99.90;;;;;;4916450;29;20399;-71
2023/09/12 19:38:07;;;;;;;8.35;5.20;;;21.30;99.90;;;;;;4916808;29;20213;-72
2023/09/12 19:40:35;;;;;;;8.27;5.20;;;21.30;99.90;;;;;;4916484;29;20220;-71
2023/09/12 19:43:03;;;;;;;7.70;5.18;;;21.30;99.90;;;;;;4916515;29;20241;-72
2023/09/12 19:45:31;;;;;;;7.10;4.82;;;21.30;99.90;;;;;;4916480;29;20256;-71
2023/09/12 19:47:58;;;;;;;6.25;4.70;;;21.30;99.90;;;;;;4917080;29;20268;-71
2023/09/12 19:50:25;;;;;;;6.70;4.43;;;21.20;99.90;;;;;;4916195;29;20225;-71
2023/09/12 19:52:52;;;;;;;8.10;4.75;;;21.20;99.90;;;;;;4916421;29;20304;-72
2023/09/12 19:55:18;;;;;;;8.02;4.50;;;21.30;99.90;;;;;;4916483;29;20332;-71
2023/09/12 19:57:45;;;;;;;6.70;4.80;;;21.40;99.90;;;;;;4920366;29;20299;-72
2023/09/12 20:00:13;;;;;;;6.82;4.55;;;21.50;99.90;;;;;;4935312;29;20209;-71
2023/09/12 20:02:43;;;;;;;10.05;4.35;;;21.60;99.90;;;;;;4935418;29;20220;-71
2023/09/12 20:05:10;;;;;;;7.47;4.63;;;21.60;99.90;;;;;;4935145;29;20240;-71